KSUN

Details ICAO KSUN (SUN)
Name FRIEDMAN MEM
Region United States
Timezone America/Boise (UTC-6.0)
Plans Departing 41
Arriving 42
Stats Elevation 5,320 ft / 1,622 m (AMSL)
Location 43.504452° -114.296209°
Runways 1
Magnetic Variation 12.685° E
Sunrise 2018-05-24 12:05:36 UTC / 2018-05-24 06:05:36 Local
Sunset 2018-05-25 03:05:22 UTC / 2018-05-24 21:05:22 Local
Advertisement - Login to hide

Runways

ID Width Length Bearing (true) Bearing (mag) Surface Threshold Offset Overrun Length
13 100 ft / 30 m 6,949 ft / 2,118 m 144.87° 132.19° Asphalt 1,501 ft / 458 m 0 ft / 0 m
31 100 ft / 30 m 6,949 ft / 2,118 m 324.88° 312.20° Asphalt 0 ft / 0 m 0 ft / 0 m

Map

Weather


0- 5 10 15 20 25 30 35+ Temperature / ° C

Clouds and Precipitation
Forecast for 2018-05-24 12:00 UTC. Updated an hour ago

Ground ~20,000 ft ~40,000 ft Winds

METAR

KSUN 241215Z AUTO 30006KT 10SM BKN070 08/07 A3011 RMK AO2

TAF

TAF KSUN 241123Z 2412/2518 31006KT P6SM BKN050 BKN120 FM241800 14006KT P6SM VCTS BKN050CB BKN110 FM250300 31006KT P6SM SCT090 AMD LTD TO CLD VIS AND WIND TIL 241300

Frequencies

Recorded 128.22 MHz ATIS
Unicom 125.60 MHz CTAF
Ground 121.70 MHz GND
Recorded 128.22 MHz AWOS
Unicom 122.95 MHz UNICOM
Tower 125.60 MHz HAILEY TWR
Warning: Do not use this data for real-world aviation or navigation. No guarantee of current accuracy is given.